sensor_id;sensor_type;location;lat;lon;timestamp;pressure;altitude;pressure_sealevel;temperature;humidity
55538;BME280;41383;51.418;7.286;2023-05-25T00:00:00;100742.81;;;11.17;74.29
55538;BME280;41383;51.418;7.286;2023-05-25T00:02:25;100748.00;;;11.19;75.07
55538;BME280;41383;51.418;7.286;2023-05-25T00:04:51;100754.16;;;11.26;75.29
55538;BME280;41383;51.418;7.286;2023-05-25T00:07:16;100742.59;;;11.36;74.81
55538;BME280;41383;51.418;7.286;2023-05-25T00:09:42;100746.16;;;11.37;75.12
55538;BME280;41383;51.418;7.286;2023-05-25T00:12:09;100749.03;;;11.47;75.17
55538;BME280;41383;51.418;7.286;2023-05-25T00:14:34;100739.88;;;11.53;74.86
55538;BME280;41383;51.418;7.286;2023-05-25T00:16:59;100740.44;;;11.55;75.48
55538;BME280;41383;51.418;7.286;2023-05-25T00:19:28;100736.66;;;11.56;75.44
55538;BME280;41383;51.418;7.286;2023-05-25T00:21:53;100741.38;;;11.61;75.44
55538;BME280;41383;51.418;7.286;2023-05-25T00:24:18;100741.97;;;11.63;75.59
55538;BME280;41383;51.418;7.286;2023-05-25T00:26:44;100742.78;;;11.64;75.44
55538;BME280;41383;51.418;7.286;2023-05-25T00:29:09;100738.81;;;11.72;74.88
55538;BME280;41383;51.418;7.286;2023-05-25T00:31:35;100743.34;;;11.66;74.76
55538;BME280;41383;51.418;7.286;2023-05-25T00:34:00;100741.13;;;11.63;74.85
55538;BME280;41383;51.418;7.286;2023-05-25T00:36:25;100740.88;;;11.64;74.80
55538;BME280;41383;51.418;7.286;2023-05-25T00:38:51;100739.47;;;11.62;74.66
55538;BME280;41383;51.418;7.286;2023-05-25T00:41:17;100742.28;;;11.50;75.39
55538;BME280;41383;51.418;7.286;2023-05-25T00:43:46;100735.06;;;11.43;75.48
55538;BME280;41383;51.418;7.286;2023-05-25T00:46:14;100738.97;;;11.48;75.24
55538;BME280;41383;51.418;7.286;2023-05-25T00:48:41;100730.69;;;11.42;74.72
55538;BME280;41383;51.418;7.286;2023-05-25T00:51:08;100736.22;;;11.30;74.25
55538;BME280;41383;51.418;7.286;2023-05-25T00:53:34;100727.00;;;11.19;74.77
55538;BME280;41383;51.418;7.286;2023-05-25T00:56:04;100737.78;;;11.26;74.22
55538;BME280;41383;51.418;7.286;2023-05-25T00:58:33;100737.28;;;11.29;74.15
55538;BME280;41383;51.418;7.286;2023-05-25T01:01:00;100738.03;;;11.25;74.47
55538;BME280;41383;51.418;7.286;2023-05-25T01:03:30;100742.75;;;11.29;73.95
55538;BME280;41383;51.418;7.286;2023-05-25T01:06:03;100744.38;;;11.13;74.50
55538;BME280;41383;51.418;7.286;2023-05-25T01:08:32;100743.31;;;11.14;74.55
55538;BME280;41383;51.418;7.286;2023-05-25T01:10:59;100747.22;;;11.18;73.96
55538;BME280;41383;51.418;7.286;2023-05-25T01:13:27;100738.19;;;11.18;74.36
55538;BME280;41383;51.418;7.286;2023-05-25T01:15:53;100734.88;;;11.16;74.24
55538;BME280;41383;51.418;7.286;2023-05-25T01:18:18;100735.84;;;11.09;73.69
55538;BME280;41383;51.418;7.286;2023-05-25T01:21:18;100736.09;;;11.08;73.25
55538;BME280;41383;51.418;7.286;2023-05-25T01:24:13;100740.53;;;10.97;73.69
55538;BME280;41383;51.418;7.286;2023-05-25T01:26:54;100735.44;;;10.89;74.62
55538;BME280;41383;51.418;7.286;2023-05-25T01:29:23;100732.13;;;10.86;74.26
55538;BME280;41383;51.418;7.286;2023-05-25T01:31:51;100737.50;;;10.81;74.39
55538;BME280;41383;51.418;7.286;2023-05-25T01:34:18;100737.00;;;10.84;73.85
55538;BME280;41383;51.418;7.286;2023-05-25T01:36:44;100739.00;;;10.89;73.74
55538;BME280;41383;51.418;7.286;2023-05-25T01:39:10;100742.97;;;10.81;73.45
55538;BME280;41383;51.418;7.286;2023-05-25T01:41:36;100747.38;;;10.70;73.92
55538;BME280;41383;51.418;7.286;2023-05-25T01:44:02;100744.97;;;10.74;73.89
55538;BME280;41383;51.418;7.286;2023-05-25T01:46:35;100742.41;;;10.67;73.90
55538;BME280;41383;51.418;7.286;2023-05-25T01:54:43;100742.19;;;10.57;73.90
55538;BME280;41383;51.418;7.286;2023-05-25T01:57:13;100737.09;;;10.60;74.11
55538;BME280;41383;51.418;7.286;2023-05-25T01:59:42;100741.56;;;10.67;74.42
55538;BME280;41383;51.418;7.286;2023-05-25T02:02:08;100738.47;;;10.75;74.04
55538;BME280;41383;51.418;7.286;2023-05-25T02:04:34;100737.50;;;10.81;73.99
55538;BME280;41383;51.418;7.286;2023-05-25T02:07:02;100738.94;;;10.72;75.09
55538;BME280;41383;51.418;7.286;2023-05-25T02:09:28;100742.53;;;10.60;75.66
55538;BME280;41383;51.418;7.286;2023-05-25T02:11:53;100736.97;;;10.67;75.84
55538;BME280;41383;51.418;7.286;2023-05-25T02:14:18;100736.81;;;10.74;74.75
55538;BME280;41383;51.418;7.286;2023-05-25T02:16:43;100735.53;;;10.65;75.80
55538;BME280;41383;51.418;7.286;2023-05-25T02:19:10;100738.75;;;10.61;75.76
55538;BME280;41383;51.418;7.286;2023-05-25T02:21:36;100744.97;;;10.74;74.94
55538;BME280;41383;51.418;7.286;2023-05-25T02:24:02;100761.16;;;10.64;73.60
55538;BME280;41383;51.418;7.286;2023-05-25T02:26:27;100745.75;;;10.57;74.28
55538;BME280;41383;51.418;7.286;2023-05-25T02:28:53;100756.16;;;10.60;74.58
55538;BME280;41383;51.418;7.286;2023-05-25T02:31:18;100750.38;;;10.57;73.73
55538;BME280;41383;51.418;7.286;2023-05-25T02:33:43;100748.25;;;10.47;73.46
55538;BME280;41383;51.418;7.286;2023-05-25T02:36:08;100754.91;;;10.51;74.15
55538;BME280;41383;51.418;7.286;2023-05-25T02:38:34;100750.13;;;10.58;74.02
55538;BME280;41383;51.418;7.286;2023-05-25T02:40:59;100759.50;;;10.50;72.67
55538;BME280;41383;51.418;7.286;2023-05-25T02:43:24;100754.66;;;10.41;73.64
55538;BME280;41383;51.418;7.286;2023-05-25T02:45:50;100750.50;;;10.26;73.80
55538;BME280;41383;51.418;7.286;2023-05-25T02:48:15;100766.88;;;10.14;74.39
55538;BME280;41383;51.418;7.286;2023-05-25T02:50:40;100764.13;;;10.26;73.12
55538;BME280;41383;51.418;7.286;2023-05-25T02:53:05;100766.63;;;10.15;73.42
55538;BME280;41383;51.418;7.286;2023-05-25T02:55:31;100764.63;;;10.11;73.80
55538;BME280;41383;51.418;7.286;2023-05-25T02:57:56;100770.88;;;10.11;73.94
55538;BME280;41383;51.418;7.286;2023-05-25T03:00:22;100764.84;;;10.09;74.30
55538;BME280;41383;51.418;7.286;2023-05-25T03:02:47;100758.94;;;10.12;74.11
55538;BME280;41383;51.418;7.286;2023-05-25T03:05:14;100770.09;;;10.11;73.53
55538;BME280;41383;51.418;7.286;2023-05-25T03:07:40;100767.72;;;10.02;73.63
55538;BME280;41383;51.418;7.286;2023-05-25T03:10:06;100767.47;;;9.92;73.87
55538;BME280;41383;51.418;7.286;2023-05-25T03:12:31;100776.91;;;9.89;74.51
55538;BME280;41383;51.418;7.286;2023-05-25T03:14:56;100779.06;;;9.87;74.26
55538;BME280;41383;51.418;7.286;2023-05-25T03:17:22;100776.22;;;9.82;74.39
55538;BME280;41383;51.418;7.286;2023-05-25T03:19:47;100777.41;;;9.86;74.32
55538;BME280;41383;51.418;7.286;2023-05-25T03:22:12;100771.47;;;9.89;73.87
55538;BME280;41383;51.418;7.286;2023-05-25T03:24:37;100771.97;;;9.86;74.26
55538;BME280;41383;51.418;7.286;2023-05-25T03:27:05;100779.66;;;9.89;74.21
55538;BME280;41383;51.418;7.286;2023-05-25T03:29:31;100783.56;;;9.93;73.97
55538;BME280;41383;51.418;7.286;2023-05-25T03:31:56;100783.56;;;9.93;74.99
55538;BME280;41383;51.418;7.286;2023-05-25T03:34:21;100776.34;;;10.11;75.01
55538;BME280;41383;51.418;7.286;2023-05-25T03:36:48;100768.50;;;10.03;74.92
55538;BME280;41383;51.418;7.286;2023-05-25T03:39:14;100779.75;;;9.95;74.62
55538;BME280;41383;51.418;7.286;2023-05-25T03:41:39;100786.53;;;9.92;74.92
55538;BME280;41383;51.418;7.286;2023-05-25T03:44:04;100791.25;;;9.97;74.22
55538;BME280;41383;51.418;7.286;2023-05-25T03:46:30;100787.47;;;9.98;74.54
55538;BME280;41383;51.418;7.286;2023-05-25T03:48:55;100784.84;;;10.03;74.52
55538;BME280;41383;51.418;7.286;2023-05-25T03:51:20;100799.81;;;10.00;73.58
55538;BME280;41383;51.418;7.286;2023-05-25T03:53:46;100800.16;;;9.92;74.53
55538;BME280;41383;51.418;7.286;2023-05-25T03:56:11;100794.81;;;9.97;74.59
55538;BME280;41383;51.418;7.286;2023-05-25T03:58:36;100804.28;;;9.95;75.13
55538;BME280;41383;51.418;7.286;2023-05-25T04:01:01;100805.00;;;10.02;75.24
55538;BME280;41383;51.418;7.286;2023-05-25T04:03:27;100800.06;;;10.11;75.16
55538;BME280;41383;51.418;7.286;2023-05-25T04:05:52;100800.41;;;10.26;74.39
55538;BME280;41383;51.418;7.286;2023-05-25T04:08:17;100808.09;;;10.30;74.16
55538;BME280;41383;51.418;7.286;2023-05-25T04:10:44;100802.63;;;10.30;74.58
55538;BME280;41383;51.418;7.286;2023-05-25T04:13:10;100807.84;;;10.19;74.90
55538;BME280;41383;51.418;7.286;2023-05-25T04:15:35;100812.94;;;10.15;75.39
55538;BME280;41383;51.418;7.286;2023-05-25T04:18:01;100816.28;;;10.18;74.85
55538;BME280;41383;51.418;7.286;2023-05-25T04:20:27;100810.56;;;10.19;75.51
55538;BME280;41383;51.418;7.286;2023-05-25T04:22:52;100821.03;;;10.22;75.45
55538;BME280;41383;51.418;7.286;2023-05-25T04:25:17;100823.63;;;10.29;75.55
55538;BME280;41383;51.418;7.286;2023-05-25T04:27:43;100817.69;;;10.32;75.65
55538;BME280;41383;51.418;7.286;2023-05-25T04:30:11;100822.31;;;10.32;75.78
55538;BME280;41383;51.418;7.286;2023-05-25T04:32:36;100827.75;;;10.32;75.82
55538;BME280;41383;51.418;7.286;2023-05-25T04:35:02;100832.88;;;10.28;76.15
55538;BME280;41383;51.418;7.286;2023-05-25T04:37:29;100828.59;;;10.32;76.65
55538;BME280;41383;51.418;7.286;2023-05-25T04:39:56;100824.34;;;10.36;76.23
55538;BME280;41383;51.418;7.286;2023-05-25T04:42:22;100825.03;;;10.44;76.11
55538;BME280;41383;51.418;7.286;2023-05-25T04:44:48;100835.75;;;10.57;75.98
55538;BME280;41383;51.418;7.286;2023-05-25T04:47:13;100834.78;;;10.64;75.25
55538;BME280;41383;51.418;7.286;2023-05-25T04:49:40;100838.09;;;10.78;75.16
55538;BME280;41383;51.418;7.286;2023-05-25T04:52:05;100843.75;;;10.76;75.62
55538;BME280;41383;51.418;7.286;2023-05-25T04:54:31;100835.22;;;10.84;75.37
55538;BME280;41383;51.418;7.286;2023-05-25T04:56:56;100835.59;;;10.88;75.48
55538;BME280;41383;51.418;7.286;2023-05-25T04:59:21;100830.13;;;10.88;75.71
55538;BME280;41383;51.418;7.286;2023-05-25T05:01:47;100832.69;;;10.95;75.17
55538;BME280;41383;51.418;7.286;2023-05-25T05:04:12;100842.19;;;10.92;75.33
55538;BME280;41383;51.418;7.286;2023-05-25T05:06:39;100841.72;;;10.95;75.66
55538;BME280;41383;51.418;7.286;2023-05-25T05:09:04;100852.03;;;11.05;75.58
55538;BME280;41383;51.418;7.286;2023-05-25T05:11:30;100849.53;;;11.04;76.29
55538;BME280;41383;51.418;7.286;2023-05-25T05:13:55;100849.03;;;11.07;76.03
55538;BME280;41383;51.418;7.286;2023-05-25T05:16:20;100857.69;;;11.16;75.85
55538;BME280;41383;51.418;7.286;2023-05-25T05:18:46;100859.72;;;11.20;75.31
55538;BME280;41383;51.418;7.286;2023-05-25T05:21:11;100859.38;;;11.05;75.63
55538;BME280;41383;51.418;7.286;2023-05-25T05:23:37;100864.63;;;11.06;76.07
55538;BME280;41383;51.418;7.286;2023-05-25T05:26:02;100868.59;;;11.16;75.82
55538;BME280;41383;51.418;7.286;2023-05-25T05:28:29;100866.94;;;11.15;75.78
55538;BME280;41383;51.418;7.286;2023-05-25T05:30:55;100877.53;;;10.99;76.59
55538;BME280;41383;51.418;7.286;2023-05-25T05:33:20;100876.94;;;10.97;77.23
55538;BME280;41383;51.418;7.286;2023-05-25T05:35:47;100886.22;;;10.96;77.80
55538;BME280;41383;51.418;7.286;2023-05-25T05:38:13;100885.00;;;11.16;76.92
55538;BME280;41383;51.418;7.286;2023-05-25T05:40:38;100884.16;;;11.15;77.37
55538;BME280;41383;51.418;7.286;2023-05-25T05:43:03;100889.44;;;11.34;76.32
55538;BME280;41383;51.418;7.286;2023-05-25T05:45:29;100897.84;;;11.44;76.80
55538;BME280;41383;51.418;7.286;2023-05-25T05:47:54;100902.97;;;11.41;76.53
55538;BME280;41383;51.418;7.286;2023-05-25T05:50:19;100901.59;;;11.55;76.37
55538;BME280;41383;51.418;7.286;2023-05-25T05:52:45;100896.91;;;11.68;76.30
55538;BME280;41383;51.418;7.286;2023-05-25T05:55:10;100906.38;;;11.77;76.21
55538;BME280;41383;51.418;7.286;2023-05-25T05:57:35;100906.72;;;11.98;75.61
55538;BME280;41383;51.418;7.286;2023-05-25T06:00:01;100905.16;;;12.02;75.37
55538;BME280;41383;51.418;7.286;2023-05-25T06:02:29;100914.84;;;12.10;74.35
55538;BME280;41383;51.418;7.286;2023-05-25T06:04:54;100912.13;;;12.22;74.09
55538;BME280;41383;51.418;7.286;2023-05-25T06:07:19;100910.44;;;12.21;74.76
55538;BME280;41383;51.418;7.286;2023-05-25T06:09:45;100909.78;;;12.31;73.87
55538;BME280;41383;51.418;7.286;2023-05-25T06:12:10;100911.78;;;12.36;73.78
55538;BME280;41383;51.418;7.286;2023-05-25T06:14:35;100902.66;;;12.47;72.87
55538;BME280;41383;51.418;7.286;2023-05-25T06:17:00;100907.94;;;12.54;73.01
55538;BME280;41383;51.418;7.286;2023-05-25T06:19:26;100910.44;;;12.56;73.01
55538;BME280;41383;51.418;7.286;2023-05-25T06:21:51;100915.84;;;12.51;73.57
55538;BME280;41383;51.418;7.286;2023-05-25T06:24:16;100910.50;;;12.61;72.61
55538;BME280;41383;51.418;7.286;2023-05-25T06:26:41;100922.00;;;12.63;72.66
55538;BME280;41383;51.418;7.286;2023-05-25T06:29:07;100916.06;;;12.66;73.12
55538;BME280;41383;51.418;7.286;2023-05-25T06:31:32;100917.91;;;12.60;73.00
55538;BME280;41383;51.418;7.286;2023-05-25T06:33:57;100913.91;;;12.51;73.66
55538;BME280;41383;51.418;7.286;2023-05-25T06:36:22;100913.09;;;12.51;74.31
55538;BME280;41383;51.418;7.286;2023-05-25T06:38:48;100919.38;;;12.68;73.72
55538;BME280;41383;51.418;7.286;2023-05-25T06:41:13;100926.84;;;12.73;73.42
55538;BME280;41383;51.418;7.286;2023-05-25T06:43:39;100921.16;;;12.80;73.22
55538;BME280;41383;51.418;7.286;2023-05-25T06:46:06;100921.25;;;12.85;73.76
55538;BME280;41383;51.418;7.286;2023-05-25T06:48:31;100922.47;;;12.94;73.37
55538;BME280;41383;51.418;7.286;2023-05-25T06:50:57;100920.94;;;13.04;72.78
55538;BME280;41383;51.418;7.286;2023-05-25T06:53:22;100923.31;;;12.95;72.89
55538;BME280;41383;51.418;7.286;2023-05-25T06:55:47;100928.00;;;13.00;73.68
55538;BME280;41383;51.418;7.286;2023-05-25T06:58:13;100926.38;;;13.21;72.05
55538;BME280;41383;51.418;7.286;2023-05-25T07:00:38;100939.31;;;13.26;72.19
55538;BME280;41383;51.418;7.286;2023-05-25T07:03:03;100933.16;;;13.36;71.65
55538;BME280;41383;51.418;7.286;2023-05-25T07:05:29;100935.50;;;13.27;72.50
55538;BME280;41383;51.418;7.286;2023-05-25T07:07:54;100933.00;;;13.48;71.29
55538;BME280;41383;51.418;7.286;2023-05-25T07:10:19;100925.38;;;13.50;70.83
55538;BME280;41383;51.418;7.286;2023-05-25T07:12:44;100934.81;;;13.59;70.35
55538;BME280;41383;51.418;7.286;2023-05-25T07:15:10;100938.75;;;13.69;70.60
55538;BME280;41383;51.418;7.286;2023-05-25T07:17:37;100936.09;;;13.79;70.54
55538;BME280;41383;51.418;7.286;2023-05-25T07:20:02;100945.13;;;13.74;70.26
55538;BME280;41383;51.418;7.286;2023-05-25T07:22:29;100942.22;;;13.86;69.38
55538;BME280;41383;51.418;7.286;2023-05-25T07:24:54;100941.78;;;13.95;69.46
55538;BME280;41383;51.418;7.286;2023-05-25T07:27:19;100937.06;;;13.90;70.26
55538;BME280;41383;51.418;7.286;2023-05-25T07:29:45;100940.75;;;14.01;69.28
55538;BME280;41383;51.418;7.286;2023-05-25T07:32:10;100944.50;;;13.95;69.92
55538;BME280;41383;51.418;7.286;2023-05-25T07:34:35;100944.63;;;14.05;68.70
55538;BME280;41383;51.418;7.286;2023-05-25T07:37:01;100952.88;;;14.10;68.26
55538;BME280;41383;51.418;7.286;2023-05-25T07:39:26;100958.00;;;14.01;68.67
55538;BME280;41383;51.418;7.286;2023-05-25T07:41:51;100953.47;;;14.18;68.06
55538;BME280;41383;51.418;7.286;2023-05-25T07:44:17;100956.84;;;14.25;68.06
55538;BME280;41383;51.418;7.286;2023-05-25T07:46:42;100954.50;;;14.39;67.01
55538;BME280;41383;51.418;7.286;2023-05-25T07:49:07;100960.84;;;14.45;66.83
55538;BME280;41383;51.418;7.286;2023-05-25T07:51:37;100959.22;;;14.44;67.05
55538;BME280;41383;51.418;7.286;2023-05-25T07:54:03;100958.09;;;14.40;67.09
55538;BME280;41383;51.418;7.286;2023-05-25T07:56:28;100965.28;;;14.46;67.17
55538;BME280;41383;51.418;7.286;2023-05-25T07:58:53;100962.56;;;14.51;66.28
55538;BME280;41383;51.418;7.286;2023-05-25T08:01:19;100973.56;;;14.23;67.48
55538;BME280;41383;51.418;7.286;2023-05-25T08:03:44;100970.69;;;14.41;66.92
55538;BME280;41383;51.418;7.286;2023-05-25T08:06:09;100965.97;;;14.36;66.59
55538;BME280;41383;51.418;7.286;2023-05-25T08:08:35;100965.31;;;14.56;65.66
55538;BME280;41383;51.418;7.286;2023-05-25T08:11:01;100965.94;;;14.64;65.17
55538;BME280;41383;51.418;7.286;2023-05-25T08:13:26;100968.41;;;14.65;64.69
55538;BME280;41383;51.418;7.286;2023-05-25T08:15:52;100964.75;;;14.54;65.58
55538;BME280;41383;51.418;7.286;2023-05-25T08:18:17;100969.66;;;14.47;66.28
55538;BME280;41383;51.418;7.286;2023-05-25T08:20:43;100970.81;;;14.56;65.70
55538;BME280;41383;51.418;7.286;2023-05-25T08:23:08;100967.59;;;14.65;64.89
55538;BME280;41383;51.418;7.286;2023-05-25T08:25:33;100971.25;;;14.76;64.34
55538;BME280;41383;51.418;7.286;2023-05-25T08:27:59;100972.66;;;14.78;64.45
55538;BME280;41383;51.418;7.286;2023-05-25T08:30:24;100969.84;;;14.73;64.70
55538;BME280;41383;51.418;7.286;2023-05-25T08:32:49;100968.34;;;14.88;64.15
55538;BME280;41383;51.418;7.286;2023-05-25T08:35:15;100970.78;;;14.84;63.75
55538;BME280;41383;51.418;7.286;2023-05-25T08:37:41;100977.59;;;14.81;63.90
55538;BME280;41383;51.418;7.286;2023-05-25T08:40:13;100979.03;;;14.89;63.85
55538;BME280;41383;51.418;7.286;2023-05-25T08:42:40;100974.41;;;14.95;63.26
55538;BME280;41383;51.418;7.286;2023-05-25T08:45:06;100983.22;;;14.97;63.29
55538;BME280;41383;51.418;7.286;2023-05-25T08:47:35;100979.94;;;15.00;63.08
55538;BME280;41383;51.418;7.286;2023-05-25T08:50:05;100978.63;;;15.13;62.91
55538;BME280;41383;51.418;7.286;2023-05-25T08:52:33;100976.72;;;15.09;62.85
55538;BME280;41383;51.418;7.286;2023-05-25T08:55:03;100976.16;;;15.12;62.69
55538;BME280;41383;51.418;7.286;2023-05-25T08:57:37;100986.03;;;15.08;62.54
55538;BME280;41383;51.418;7.286;2023-05-25T09:00:06;100984.38;;;15.07;62.61
55538;BME280;41383;51.418;7.286;2023-05-25T09:02:38;100978.34;;;15.10;63.52
55538;BME280;41383;51.418;7.286;2023-05-25T09:05:07;100977.91;;;15.23;62.91
55538;BME280;41383;51.418;7.286;2023-05-25T09:07:33;100979.97;;;15.05;62.99
55538;BME280;41383;51.418;7.286;2023-05-25T09:09:59;100985.50;;;15.11;62.58
55538;BME280;41383;51.418;7.286;2023-05-25T09:12:27;100987.69;;;15.09;61.70
55538;BME280;41383;51.418;7.286;2023-05-25T09:14:54;100979.84;;;15.33;61.82
55538;BME280;41383;51.418;7.286;2023-05-25T09:17:19;100986.19;;;15.39;62.00
55538;BME280;41383;51.418;7.286;2023-05-25T09:19:45;100986.53;;;15.53;60.65
55538;BME280;41383;51.418;7.286;2023-05-25T09:22:11;100979.69;;;15.56;60.91
55538;BME280;41383;51.418;7.286;2023-05-25T09:24:37;100987.41;;;15.64;60.78
55538;BME280;41383;51.418;7.286;2023-05-25T09:27:05;100981.91;;;15.64;60.54
55538;BME280;41383;51.418;7.286;2023-05-25T09:29:31;100992.31;;;15.57;60.58
55538;BME280;41383;51.418;7.286;2023-05-25T09:31:59;100996.41;;;15.54;61.27
55538;BME280;41383;51.418;7.286;2023-05-25T09:34:29;100992.03;;;15.53;61.33
55538;BME280;41383;51.418;7.286;2023-05-25T09:36:57;101000.00;;;15.55;61.00
55538;BME280;41383;51.418;7.286;2023-05-25T09:39:24;100995.91;;;15.62;61.90
55538;BME280;41383;51.418;7.286;2023-05-25T09:41:49;101002.81;;;15.70;61.05
55538;BME280;41383;51.418;7.286;2023-05-25T09:44:15;100998.41;;;15.64;60.69
55538;BME280;41383;51.418;7.286;2023-05-25T09:46:40;100998.66;;;15.57;60.99
55538;BME280;41383;51.418;7.286;2023-05-25T09:49:08;101006.03;;;15.51;62.05
55538;BME280;41383;51.418;7.286;2023-05-25T09:51:34;101009.31;;;15.48;61.65
55538;BME280;41383;51.418;7.286;2023-05-25T09:54:01;101003.63;;;15.12;61.58
55538;BME280;41383;51.418;7.286;2023-05-25T09:56:29;101008.34;;;15.22;62.47
55538;BME280;41383;51.418;7.286;2023-05-25T09:58:55;101010.84;;;15.23;63.11
55538;BME280;41383;51.418;7.286;2023-05-25T10:01:21;101018.88;;;15.35;61.73
55538;BME280;41383;51.418;7.286;2023-05-25T10:03:47;101018.06;;;15.35;61.94
55538;BME280;41383;51.418;7.286;2023-05-25T10:06:16;101022.16;;;15.32;61.76
55538;BME280;41383;51.418;7.286;2023-05-25T10:08:43;101029.94;;;15.46;60.95
55538;BME280;41383;51.418;7.286;2023-05-25T10:11:11;101031.56;;;15.47;61.11
55538;BME280;41383;51.418;7.286;2023-05-25T10:13:38;101032.63;;;15.40;60.79
55538;BME280;41383;51.418;7.286;2023-05-25T10:16:04;101042.22;;;15.38;60.88
55538;BME280;41383;51.418;7.286;2023-05-25T10:18:31;101036.00;;;15.04;60.77
55538;BME280;41383;51.418;7.286;2023-05-25T10:21:02;101038.69;;;14.99;60.87
55538;BME280;41383;51.418;7.286;2023-05-25T10:23:38;101045.31;;;15.03;60.89
55538;BME280;41383;51.418;7.286;2023-05-25T10:26:10;101039.53;;;15.00;61.54
55538;BME280;41383;51.418;7.286;2023-05-25T10:28:38;101038.47;;;15.06;61.00
55538;BME280;41383;51.418;7.286;2023-05-25T10:31:04;101035.16;;;15.04;60.64
55538;BME280;41383;51.418;7.286;2023-05-25T10:33:31;101041.56;;;15.15;60.82
55538;BME280;41383;51.418;7.286;2023-05-25T10:35:57;101038.25;;;15.13;60.62
55538;BME280;41383;51.418;7.286;2023-05-25T10:38:24;101042.13;;;15.17;60.17
55538;BME280;41383;51.418;7.286;2023-05-25T10:40:52;101038.56;;;15.22;60.34
55538;BME280;41383;51.418;7.286;2023-05-25T10:43:18;101045.53;;;15.35;60.54
55538;BME280;41383;51.418;7.286;2023-05-25T10:45:44;101048.91;;;15.47;60.38
55538;BME280;41383;51.418;7.286;2023-05-25T10:48:09;101038.75;;;15.53;58.94
55538;BME280;41383;51.418;7.286;2023-05-25T10:50:35;101035.56;;;15.77;59.04
55538;BME280;41383;51.418;7.286;2023-05-25T10:53:21;101035.63;;;15.98;58.69
55538;BME280;41383;51.418;7.286;2023-05-25T10:58:19;101031.16;;;15.81;57.77
55538;BME280;41383;51.418;7.286;2023-05-25T11:01:07;101038.06;;;15.89;58.36
55538;BME280;41383;51.418;7.286;2023-05-25T11:06:17;101028.78;;;16.01;57.42
55538;BME280;41383;51.418;7.286;2023-05-25T11:11:21;101027.69;;;16.02;57.39
55538;BME280;41383;51.418;7.286;2023-05-25T11:13:48;101028.28;;;16.14;57.41
55538;BME280;41383;51.418;7.286;2023-05-25T11:16:30;101031.34;;;16.39;56.94
55538;BME280;41383;51.418;7.286;2023-05-25T11:19:00;101028.88;;;16.68;56.19
55538;BME280;41383;51.418;7.286;2023-05-25T11:23:55;101027.78;;;16.64;56.87
55538;BME280;41383;51.418;7.286;2023-05-25T11:26:24;101020.06;;;16.61;56.18
55538;BME280;41383;51.418;7.286;2023-05-25T11:28:51;101026.69;;;16.65;56.70
55538;BME280;41383;51.418;7.286;2023-05-25T11:31:28;101015.66;;;16.55;57.35
55538;BME280;41383;51.418;7.286;2023-05-25T11:33:58;101013.75;;;16.71;57.36
55538;BME280;41383;51.418;7.286;2023-05-25T11:36:25;101014.84;;;16.75;56.24
55538;BME280;41383;51.418;7.286;2023-05-25T11:38:51;101005.75;;;16.80;56.19
55538;BME280;41383;51.418;7.286;2023-05-25T11:41:20;100995.28;;;16.77;56.10
55538;BME280;41383;51.418;7.286;2023-05-25T11:43:47;100990.31;;;16.84;56.23
55538;BME280;41383;51.418;7.286;2023-05-25T11:46:14;100999.66;;;16.99;55.69
55538;BME280;41383;51.418;7.286;2023-05-25T11:48:51;100994.69;;;17.01;55.31
55538;BME280;41383;51.418;7.286;2023-05-25T11:51:29;100990.00;;;17.12;55.56
55538;BME280;41383;51.418;7.286;2023-05-25T11:53:54;100991.38;;;17.20;55.01
55538;BME280;41383;51.418;7.286;2023-05-25T11:56:21;100991.38;;;16.99;55.60
55538;BME280;41383;51.418;7.286;2023-05-25T11:58:49;100990.31;;;16.84;56.55
55538;BME280;41383;51.418;7.286;2023-05-25T12:01:24;100986.72;;;16.89;55.32
55538;BME280;41383;51.418;7.286;2023-05-25T12:03:52;100995.81;;;16.84;55.73
55538;BME280;41383;51.418;7.286;2023-05-25T12:06:28;100992.53;;;16.77;55.08
55538;BME280;41383;51.418;7.286;2023-05-25T12:08:54;100992.25;;;16.78;55.67
55538;BME280;41383;51.418;7.286;2023-05-25T12:11:31;100988.66;;;16.88;56.55
55538;BME280;41383;51.418;7.286;2023-05-25T12:13:57;100984.78;;;16.84;57.16
55538;BME280;41383;51.418;7.286;2023-05-25T12:16:23;100992.81;;;16.86;57.05
55538;BME280;41383;51.418;7.286;2023-05-25T12:18:50;100983.72;;;16.80;57.16
55538;BME280;41383;51.418;7.286;2023-05-25T12:21:16;100983.13;;;16.88;56.88
55538;BME280;41383;51.418;7.286;2023-05-25T12:23:41;100987.00;;;16.82;57.30
55538;BME280;41383;51.418;7.286;2023-05-25T12:26:08;100989.19;;;16.90;57.12
55538;BME280;41383;51.418;7.286;2023-05-25T12:28:35;100984.25;;;16.98;57.09
55538;BME280;41383;51.418;7.286;2023-05-25T12:31:24;100976.53;;;17.00;56.56
55538;BME280;41383;51.418;7.286;2023-05-25T12:34:16;100986.13;;;17.02;55.72
55538;BME280;41383;51.418;7.286;2023-05-25T12:39:16;100975.97;;;17.13;55.77
55538;BME280;41383;51.418;7.286;2023-05-25T12:41:47;100975.41;;;17.01;56.61
55538;BME280;41383;51.418;7.286;2023-05-25T12:44:23;100977.06;;;17.07;56.08
55538;BME280;41383;51.418;7.286;2023-05-25T12:46:50;100972.91;;;17.04;56.32
55538;BME280;41383;51.418;7.286;2023-05-25T12:49:29;100979.28;;;16.95;56.58
55538;BME280;41383;51.418;7.286;2023-05-25T12:51:55;100985.09;;;16.88;56.82
55538;BME280;41383;51.418;7.286;2023-05-25T12:57:03;100980.44;;;16.67;58.30
55538;BME280;41383;51.418;7.286;2023-05-25T12:59:33;100978.22;;;16.69;58.30
55538;BME280;41383;51.418;7.286;2023-05-25T13:01:58;100982.88;;;16.85;57.10
55538;BME280;41383;51.418;7.286;2023-05-25T13:04:24;100978.19;;;16.90;57.61
55538;BME280;41383;51.418;7.286;2023-05-25T13:06:51;100975.72;;;16.94;56.75
55538;BME280;41383;51.418;7.286;2023-05-25T13:09:16;100971.59;;;16.81;56.97